Time;durP1;ratioP1;P1;durP2;ratioP2;P2;SDS_P1;SDS_P2;PMS_P1;PMS_P2;Temp;Humidity;BMP_temperature;BMP_pressure;BME280_temperature;BME280_humidity;BME280_pressure;Samples;Min_cycle;Max_cycle;Signal;HPM_P1;HPM_P2
2022/05/27 00:01:18;;;;;;;0.63;0.63;;;14.10;99.90;;;;;;5000488;28;20046;-77
2022/05/27 00:03:43;;;;;;;0.60;0.60;;;14.10;99.90;;;;;;5010946;28;20099;-78
2022/05/27 00:06:09;;;;;;;0.85;0.85;;;14.00;99.90;;;;;;5019708;28;20045;-77
2022/05/27 00:08:35;;;;;;;0.70;0.70;;;14.00;99.90;;;;;;5015083;28;20079;-77
2022/05/27 00:11:02;;;;;;;0.70;0.70;;;13.90;99.90;;;;;;5022426;28;20108;-78
2022/05/27 00:13:29;;;;;;;0.20;0.20;;;13.90;99.90;;;;;;4994728;28;20049;-77
2022/05/27 00:15:55;;;;;;;0.70;0.70;;;13.90;99.90;;;;;;5012788;28;20041;-78
2022/05/27 00:18:21;;;;;;;0.32;0.32;;;13.80;99.90;;;;;;4997655;28;20095;-79
2022/05/27 00:20:47;;;;;;;;;;;13.70;99.90;;;;;;5005887;28;20033;-79
2022/05/27 00:23:15;;;;;;;0.40;0.40;;;13.70;99.90;;;;;;5026649;28;19917;-80
2022/05/27 00:25:41;;;;;;;0.30;0.30;;;13.60;99.90;;;;;;5028527;28;20099;-78
2022/05/27 00:28:07;;;;;;;0.70;0.70;;;13.60;99.90;;;;;;5014036;28;20034;-78
2022/05/27 00:30:33;;;;;;;0.30;0.30;;;13.50;99.90;;;;;;5021898;28;20049;-78
2022/05/27 00:32:59;;;;;;;0.30;0.30;;;13.50;99.90;;;;;;5031481;28;20083;-82
2022/05/27 00:35:25;;;;;;;;;;;13.50;99.90;;;;;;5004555;28;20046;-79
2022/05/27 00:37:50;;;;;;;0.30;0.30;;;13.50;99.90;;;;;;5024685;28;19917;-79
2022/05/27 00:40:16;;;;;;;;;;;13.50;99.90;;;;;;4994833;28;20080;-76
2022/05/27 00:42:44;;;;;;;0.88;0.70;;;13.40;99.90;;;;;;5014516;28;19921;-79
2022/05/27 00:45:15;;;;;;;11.15;1.95;;;13.40;99.90;;;;;;5022248;28;20080;-78
2022/05/27 00:47:42;;;;;;;0.45;0.45;;;13.40;99.90;;;;;;5028349;28;20056;-78
2022/05/27 00:50:12;;;;;;;0.40;0.40;;;13.30;99.90;;;;;;5018818;28;20050;-79
2022/05/27 00:52:40;;;;;;;0.30;0.30;;;13.30;99.90;;;;;;5028297;28;20045;-77
2022/05/27 00:55:34;;;;;;;0.30;0.30;;;13.20;99.90;;;;;;5030585;28;20053;-78
2022/05/27 00:58:15;;;;;;;0.30;0.30;;;13.20;99.90;;;;;;5028428;28;20085;-78
2022/05/27 01:00:41;;;;;;;0.30;0.30;;;13.20;99.90;;;;;;4997579;28;20046;-77
2022/05/27 01:03:10;;;;;;;0.63;0.57;;;13.20;99.90;;;;;;5020241;28;20044;-79
2022/05/27 01:05:36;;;;;;;0.40;0.40;;;13.10;99.90;;;;;;5017799;28;20041;-76
2022/05/27 01:08:07;;;;;;;0.40;0.40;;;13.10;99.90;;;;;;5019243;28;20111;-78
2022/05/27 01:10:47;;;;;;;0.50;0.50;;;13.00;99.90;;;;;;4991353;28;20050;-79
2022/05/27 01:13:34;;;;;;;0.55;0.55;;;12.90;99.90;;;;;;4976519;28;20112;-78
2022/05/27 01:16:06;;;;;;;0.55;0.55;;;12.90;99.90;;;;;;5014803;28;20119;-78
2022/05/27 01:22:03;;;;;;;0.45;0.45;;;12.80;99.90;;;;;;5047817;28;20546;-77
2022/05/27 01:24:59;;;;;;;0.50;0.50;;;12.80;99.90;;;;;;5022420;28;20100;-80
2022/05/27 01:27:45;;;;;;;0.38;0.38;;;12.70;99.90;;;;;;5023664;28;20115;-79
2022/05/27 01:30:21;;;;;;;1.05;1.05;;;12.70;99.90;;;;;;5010419;28;20128;-79
2022/05/27 01:33:02;;;;;;;0.50;0.50;;;12.60;99.90;;;;;;5021835;28;20053;-79
2022/05/27 01:35:56;;;;;;;1.75;0.85;;;12.60;99.90;;;;;;5022217;28;20057;-80
2022/05/27 01:38:51;;;;;;;0.40;0.40;;;12.50;99.90;;;;;;5013574;28;20054;-78
2022/05/27 01:41:58;;;;;;;0.30;0.30;;;12.50;99.90;;;;;;5014097;28;20438;-77
2022/05/27 01:44:49;;;;;;;0.40;0.40;;;12.40;99.90;;;;;;4989503;28;20057;-82
2022/05/27 01:47:29;;;;;;;0.30;0.30;;;12.30;99.90;;;;;;5014021;28;20285;-79
2022/05/27 01:50:11;;;;;;;0.20;0.20;;;12.30;99.90;;;;;;5001317;28;20049;-78
2022/05/27 01:52:58;;;;;;;0.60;0.60;;;12.20;99.90;;;;;;5010851;28;20108;-78
2022/05/27 01:55:53;;;;;;;0.40;0.40;;;12.20;99.90;;;;;;5027102;28;20124;-78
2022/05/27 01:58:35;;;;;;;0.30;0.30;;;12.10;99.90;;;;;;5022825;28;20048;-79
2022/05/27 02:01:03;;;;;;;0.30;0.30;;;12.00;99.90;;;;;;5027240;28;20080;-79
2022/05/27 02:03:56;;;;;;;0.75;0.40;;;12.00;99.90;;;;;;5013459;28;20046;-79
2022/05/27 02:06:31;;;;;;;0.38;0.38;;;12.00;99.90;;;;;;5010229;28;20057;-80
2022/05/27 02:09:11;;;;;;;0.40;0.40;;;11.90;99.90;;;;;;5026180;28;20065;-79
2022/05/27 02:11:49;;;;;;;0.40;0.40;;;11.90;99.90;;;;;;5028443;28;20045;-78
2022/05/27 02:14:19;;;;;;;0.38;0.38;;;11.90;99.90;;;;;;5022165;28;20103;-78
2022/05/27 02:16:52;;;;;;;0.25;0.25;;;11.80;99.90;;;;;;5030565;28;20427;-77
2022/05/27 02:19:40;;;;;;;0.30;0.30;;;11.80;99.90;;;;;;5007117;28;20475;-78
2022/05/27 02:22:21;;;;;;;2.40;1.60;;;11.70;99.90;;;;;;5008565;28;20050;-77
2022/05/27 02:24:53;;;;;;;0.50;0.50;;;11.70;99.90;;;;;;5019852;28;20049;-78
2022/05/27 02:27:27;;;;;;;0.60;0.60;;;11.70;99.90;;;;;;5032423;28;20077;-79
2022/05/27 02:29:57;;;;;;;0.35;0.35;;;11.60;99.90;;;;;;5003484;28;20077;-79
2022/05/27 02:32:31;;;;;;;0.30;0.30;;;11.60;99.90;;;;;;5032846;28;20050;-78
2022/05/27 02:35:18;;;;;;;0.30;0.30;;;11.60;99.90;;;;;;4985461;28;20065;-79
2022/05/27 02:37:48;;;;;;;0.47;0.47;;;11.50;99.90;;;;;;4997056;28;20104;-78
2022/05/27 02:40:19;;;;;;;0.40;0.40;;;11.50;99.90;;;;;;5029143;28;20542;-80
2022/05/27 02:43:10;;;;;;;0.30;0.30;;;11.40;99.90;;;;;;5001715;28;20041;-80
2022/05/27 02:46:06;;;;;;;0.47;0.47;;;11.40;99.90;;;;;;5016934;28;20077;-77
2022/05/27 02:48:38;;;;;;;0.68;0.68;;;11.40;99.90;;;;;;5012874;28;20104;-79
2022/05/27 02:51:23;;;;;;;0.40;0.40;;;11.40;99.90;;;;;;5014366;28;20037;-78
2022/05/27 02:54:04;;;;;;;1.42;1.25;;;11.40;99.90;;;;;;5019542;28;20093;-79
2022/05/27 02:56:36;;;;;;;0.30;0.30;;;11.40;99.90;;;;;;5023414;28;20111;-79
2022/05/27 02:59:02;;;;;;;0.20;0.20;;;11.30;99.90;;;;;;5012304;28;20053;-78
2022/05/27 03:01:27;;;;;;;0.30;0.30;;;11.20;99.90;;;;;;5022680;28;20356;-78
2022/05/27 03:03:53;;;;;;;0.60;0.60;;;11.20;99.90;;;;;;5018927;28;20122;-77
2022/05/27 03:06:44;;;;;;;0.40;0.40;;;11.20;99.90;;;;;;5005349;28;20049;-81
2022/05/27 03:09:29;;;;;;;0.40;0.40;;;11.10;99.90;;;;;;5002741;28;20050;-77
2022/05/27 03:12:13;;;;;;;1.45;1.45;;;11.00;99.90;;;;;;5006186;28;20459;-78
2022/05/27 03:14:58;;;;;;;0.45;0.45;;;11.00;99.90;;;;;;5018782;28;20368;-79
2022/05/27 03:17:57;;;;;;;0.30;0.30;;;10.90;99.90;;;;;;5019847;28;20418;-77
2022/05/27 03:20:38;;;;;;;1.05;0.65;;;10.90;99.90;;;;;;5015479;28;20045;-79
2022/05/27 03:23:03;;;;;;;0.32;0.32;;;10.80;99.90;;;;;;5018726;28;20464;-78
2022/05/27 03:25:43;;;;;;;0.40;0.40;;;10.80;99.90;;;;;;5019827;28;20050;-78
2022/05/27 03:28:27;;;;;;;0.75;0.75;;;10.80;99.90;;;;;;4995471;28;20053;-78
2022/05/27 03:31:00;;;;;;;0.32;0.32;;;10.80;99.90;;;;;;5026765;28;20109;-79
2022/05/27 03:33:38;;;;;;;0.20;0.20;;;10.80;99.90;;;;;;5030436;28;20160;-78
2022/05/27 03:36:18;;;;;;;0.40;0.40;;;10.80;99.90;;;;;;5029231;28;20045;-79
2022/05/27 03:38:53;;;;;;;4.75;1.60;;;10.90;99.90;;;;;;5006972;28;20459;-77
2022/05/27 03:41:21;;;;;;;0.40;0.40;;;11.00;99.90;;;;;;5031253;28;20054;-81
2022/05/27 03:43:47;;;;;;;0.50;0.50;;;11.00;99.90;;;;;;5031604;28;20051;-78
2022/05/27 03:46:25;;;;;;;0.45;0.45;;;11.10;99.90;;;;;;5014542;28;20034;-79
2022/05/27 03:48:50;;;;;;;0.80;0.50;;;11.10;99.90;;;;;;4995439;28;20049;-79
2022/05/27 03:51:21;;;;;;;0.40;0.40;;;11.10;99.90;;;;;;5017755;28;20398;-79
2022/05/27 03:54:05;;;;;;;0.40;0.40;;;11.10;99.90;;;;;;5031667;28;20045;-79
2022/05/27 03:56:37;;;;;;;0.55;0.55;;;11.20;99.90;;;;;;5022267;28;20046;-78
2022/05/27 03:59:04;;;;;;;0.30;0.30;;;11.20;99.90;;;;;;5028187;28;20112;-79
2022/05/27 04:01:31;;;;;;;0.45;0.45;;;11.20;99.90;;;;;;5030961;28;20048;-79
2022/05/27 04:03:59;;;;;;;0.50;0.50;;;11.20;99.90;;;;;;5024102;28;20045;-78
2022/05/27 04:06:27;;;;;;;0.40;0.40;;;11.30;99.90;;;;;;5031352;28;20049;-77
2022/05/27 04:08:53;;;;;;;0.40;0.40;;;11.40;99.90;;;;;;5027753;28;20041;-77
2022/05/27 04:11:19;;;;;;;0.30;0.30;;;11.40;99.90;;;;;;5022202;28;20064;-77
2022/05/27 04:13:46;;;;;;;0.40;0.40;;;11.50;99.90;;;;;;5001323;28;20121;-78
2022/05/27 04:16:14;;;;;;;0.40;0.40;;;11.60;99.90;;;;;;5014393;28;20065;-78
2022/05/27 04:18:39;;;;;;;0.85;0.85;;;11.60;99.90;;;;;;5001388;28;20091;-77
2022/05/27 04:21:05;;;;;;;0.73;0.73;;;11.60;99.90;;;;;;5003048;28;20041;-77
2022/05/27 04:23:31;;;;;;;0.40;0.40;;;11.60;99.90;;;;;;4975253;28;20108;-79
2022/05/27 04:26:06;;;;;;;0.30;0.30;;;11.60;99.90;;;;;;5009199;28;20057;-79
2022/05/27 04:28:33;;;;;;;;;;;11.60;99.90;;;;;;4978499;28;20551;-78
2022/05/27 04:30:58;;;;;;;1.55;1.45;;;11.50;99.90;;;;;;5007963;28;19990;-78
2022/05/27 04:33:24;;;;;;;0.38;0.38;;;11.40;99.90;;;;;;5016908;28;20494;-77
2022/05/27 04:35:50;;;;;;;1.90;1.80;;;11.40;99.90;;;;;;4998474;28;20046;-79
2022/05/27 04:38:15;;;;;;;0.30;0.30;;;11.40;99.90;;;;;;5026690;28;20230;-79
2022/05/27 04:40:41;;;;;;;0.40;0.40;;;11.30;99.90;;;;;;5031192;28;20053;-78
2022/05/27 04:43:09;;;;;;;0.32;0.32;;;11.40;99.90;;;;;;5014468;28;20478;-78
2022/05/27 04:45:42;;;;;;;0.40;0.40;;;11.40;99.90;;;;;;5026835;28;20053;-78
2022/05/27 04:48:08;;;;;;;0.30;0.30;;;11.50;99.90;;;;;;5010420;28;20047;-80
2022/05/27 04:50:34;;;;;;;0.65;0.65;;;11.60;99.90;;;;;;5005516;28;20045;-78
2022/05/27 04:53:00;;;;;;;0.30;0.30;;;11.60;99.90;;;;;;5012119;28;20045;-78
2022/05/27 04:55:26;;;;;;;0.70;0.70;;;11.80;99.90;;;;;;5041588;28;20060;-79
2022/05/27 04:57:54;;;;;;;0.50;0.50;;;11.80;99.90;;;;;;5005407;28;20601;-79
2022/05/27 05:00:35;;;;;;;0.30;0.30;;;11.90;99.90;;;;;;5017538;28;20037;-78
2022/05/27 05:03:01;;;;;;;0.32;0.32;;;11.90;99.90;;;;;;5017605;28;20046;-80
2022/05/27 05:05:29;;;;;;;0.60;0.60;;;12.00;99.90;;;;;;5037482;28;20167;-78
2022/05/27 05:08:15;;;;;;;0.95;0.82;;;11.90;99.90;;;;;;5018368;28;20041;-80
2022/05/27 05:10:40;;;;;;;0.88;0.88;;;12.00;99.90;;;;;;5037770;28;20115;-79
2022/05/27 05:13:06;;;;;;;0.30;0.30;;;11.90;99.90;;;;;;5037691;28;20095;-78
2022/05/27 05:15:32;;;;;;;0.40;0.40;;;12.00;99.90;;;;;;5015005;28;20171;-79
2022/05/27 05:17:58;;;;;;;0.40;0.40;;;12.00;99.90;;;;;;5024605;28;20036;-78
2022/05/27 05:20:29;;;;;;;0.30;0.30;;;12.00;99.90;;;;;;5014473;28;20045;-79
2022/05/27 05:22:55;;;;;;;0.50;0.50;;;12.10;99.90;;;;;;5048202;28;20099;-78
2022/05/27 05:25:23;;;;;;;0.40;0.40;;;12.10;99.90;;;;;;5027798;28;20045;-78
2022/05/27 05:27:49;;;;;;;0.50;0.50;;;12.10;99.90;;;;;;5024391;28;20047;-79
2022/05/27 05:30:18;;;;;;;0.30;0.30;;;12.10;99.90;;;;;;5030121;28;20095;-79
2022/05/27 05:32:44;;;;;;;0.40;0.40;;;12.00;99.90;;;;;;5017275;28;20056;-79
2022/05/27 05:35:12;;;;;;;0.43;0.43;;;12.00;99.90;;;;;;5000925;28;20049;-78
2022/05/27 05:37:38;;;;;;;0.40;0.40;;;12.00;99.90;;;;;;5019667;28;20117;-78
2022/05/27 05:40:04;;;;;;;0.70;0.55;;;12.00;99.90;;;;;;5027973;28;20196;-78
2022/05/27 05:42:30;;;;;;;0.40;0.40;;;12.00;99.90;;;;;;5030680;28;20036;-78
2022/05/27 05:44:58;;;;;;;0.57;0.57;;;12.00;99.90;;;;;;5044114;28;20415;-79
2022/05/27 05:47:23;;;;;;;0.40;0.40;;;12.10;99.90;;;;;;5046907;28;20057;-79
2022/05/27 05:49:49;;;;;;;0.20;0.20;;;12.30;99.90;;;;;;5006602;28;20471;-80
2022/05/27 05:52:20;;;;;;;1.75;1.65;;;12.40;99.90;;;;;;5016542;28;20048;-77
2022/05/27 05:54:46;;;;;;;0.50;0.50;;;12.50;99.90;;;;;;5019939;28;20048;-78
2022/05/27 05:57:12;;;;;;;0.55;0.55;;;12.60;99.90;;;;;;5055291;28;20497;-78
2022/05/27 05:59:38;;;;;;;1.30;0.70;;;12.50;99.90;;;;;;5000571;28;20041;-79
2022/05/27 06:02:05;;;;;;;0.30;0.30;;;12.50;99.90;;;;;;5050193;28;20072;-78
2022/05/27 06:04:31;;;;;;;0.45;0.45;;;12.60;99.90;;;;;;4999688;28;20495;-78
2022/05/27 06:06:57;;;;;;;4.85;1.95;;;12.70;99.90;;;;;;5017338;28;20398;-78
2022/05/27 06:09:25;;;;;;;0.60;0.60;;;12.70;99.90;;;;;;5017363;28;20124;-81
2022/05/27 06:12:00;;;;;;;0.30;0.30;;;12.80;99.90;;;;;;5005888;28;20048;-80
2022/05/27 06:14:28;;;;;;;0.80;0.80;;;12.80;99.90;;;;;;5041738;28;20067;-79
2022/05/27 06:16:53;;;;;;;1.60;1.52;;;12.90;99.90;;;;;;5054576;28;20099;-78
2022/05/27 06:19:19;;;;;;;0.30;0.30;;;12.90;99.90;;;;;;5036578;28;20041;-78
2022/05/27 06:21:45;;;;;;;0.93;0.93;;;13.00;99.90;;;;;;5023527;28;20057;-78
2022/05/27 06:24:12;;;;;;;0.50;0.50;;;13.00;99.90;;;;;;5025099;28;20383;-80
2022/05/27 06:26:40;;;;;;;0.30;0.30;;;13.00;99.90;;;;;;5021427;28;20494;-78
2022/05/27 06:34:35;;;;;;;0.55;0.55;;;13.10;99.90;;;;;;5028983;28;20638;-80
2022/05/27 06:37:08;;;;;;;0.40;0.40;;;13.10;99.90;;;;;;5027922;28;20386;-77
2022/05/27 06:39:36;;;;;;;0.40;0.40;;;13.20;99.90;;;;;;5023446;28;20551;-80
2022/05/27 06:42:05;;;;;;;0.47;0.47;;;13.20;99.90;;;;;;5069847;28;20045;-79
2022/05/27 06:44:31;;;;;;;0.35;0.35;;;13.20;99.90;;;;;;5036231;28;20041;-80
2022/05/27 06:46:57;;;;;;;;;;;13.30;99.90;;;;;;5040621;28;20057;-79
2022/05/27 06:49:23;;;;;;;1.90;1.00;;;13.30;99.90;;;;;;5029113;28;20011;-79
2022/05/27 06:51:50;;;;;;;0.50;0.50;;;13.40;99.90;;;;;;5026161;28;20084;-79
2022/05/27 06:54:17;;;;;;;0.30;0.30;;;13.50;99.90;;;;;;5035660;28;20053;-78
2022/05/27 06:56:49;;;;;;;0.30;0.30;;;13.60;99.90;;;;;;5034811;28;20047;-81
2022/05/27 06:59:16;;;;;;;0.30;0.30;;;13.50;99.90;;;;;;5035833;28;20055;-77
2022/05/27 07:01:43;;;;;;;0.55;0.55;;;13.50;99.90;;;;;;5018622;28;20046;-79
2022/05/27 07:04:09;;;;;;;0.50;0.50;;;13.50;99.90;;;;;;5029991;28;20050;-79
2022/05/27 07:06:43;;;;;;;0.68;0.68;;;13.40;99.90;;;;;;5005014;28;20041;-78
2022/05/27 07:09:14;;;;;;;1.02;1.02;;;13.30;99.90;;;;;;4999411;28;20049;-78
2022/05/27 07:11:42;;;;;;;0.30;0.30;;;13.40;99.90;;;;;;5016991;28;20041;-80
2022/05/27 07:14:08;;;;;;;0.30;0.30;;;13.40;99.90;;;;;;4999748;28;20483;-78
2022/05/27 07:16:34;;;;;;;0.40;0.40;;;13.50;99.90;;;;;;5015627;28;20077;-80
2022/05/27 07:18:59;;;;;;;;;;;13.60;99.90;;;;;;4999425;28;20395;-79
2022/05/27 07:21:28;;;;;;;0.60;0.60;;;13.60;99.90;;;;;;5015731;28;19921;-79
2022/05/27 07:23:55;;;;;;;0.30;0.30;;;13.70;99.90;;;;;;5048772;28;20053;-79
2022/05/27 07:26:27;;;;;;;0.60;0.60;;;14.00;99.90;;;;;;5028967;28;20485;-80
2022/05/27 07:28:53;;;;;;;0.40;0.40;;;14.10;99.90;;;;;;5009510;28;20072;-78
2022/05/27 07:31:19;;;;;;;1.35;1.27;;;14.20;99.90;;;;;;4998902;28;20517;-78
2022/05/27 07:33:45;;;;;;;;;;;14.20;99.90;;;;;;5025089;28;20087;-78
2022/05/27 07:36:12;;;;;;;0.82;0.77;;;14.20;99.90;;;;;;5015209;28;19952;-79
2022/05/27 07:38:38;;;;;;;2.72;1.77;;;14.00;99.90;;;;;;5058601;28;20049;-80
2022/05/27 07:41:05;;;;;;;1.25;1.25;;;14.00;99.90;;;;;;5052859;28;20513;-80
2022/05/27 07:43:31;;;;;;;1.92;1.15;;;14.00;99.90;;;;;;5024048;28;20083;-79
2022/05/27 07:45:58;;;;;;;2.30;0.55;;;13.90;99.90;;;;;;5051075;28;20502;-81
2022/05/27 07:48:24;;;;;;;0.40;0.40;;;13.90;99.90;;;;;;4998232;28;20049;-80
2022/05/27 07:50:50;;;;;;;1.10;1.08;;;14.10;99.90;;;;;;5053063;28;20095;-80
2022/05/27 07:53:16;;;;;;;0.50;0.50;;;14.20;99.90;;;;;;5002994;28;20037;-81
2022/05/27 07:55:42;;;;;;;;;;;14.10;99.90;;;;;;5037010;28;20425;-78
2022/05/27 07:58:09;;;;;;;0.32;0.32;;;14.00;99.90;;;;;;4982598;28;20278;-79
2022/05/27 08:00:37;;;;;;;0.73;0.73;;;14.00;99.90;;;;;;5032316;28;20050;-79
2022/05/27 08:03:04;;;;;;;0.40;0.40;;;13.70;99.90;;;;;;5030815;28;20048;-79
2022/05/27 08:05:32;;;;;;;1.95;1.05;;;13.80;99.90;;;;;;5044981;28;20033;-80
2022/05/27 08:07:59;;;;;;;2.67;2.00;;;14.10;99.90;;;;;;5034774;28;20476;-82
2022/05/27 08:10:34;;;;;;;0.60;0.60;;;14.30;99.90;;;;;;5029173;28;20523;-82
2022/05/27 08:13:05;;;;;;;0.43;0.43;;;14.30;99.90;;;;;;5034313;28;20144;-77
2022/05/27 08:15:31;;;;;;;0.40;0.40;;;14.40;99.90;;;;;;5020809;28;20379;-80
2022/05/27 08:17:57;;;;;;;0.40;0.40;;;14.50;99.90;;;;;;5004903;28;20033;-79
2022/05/27 08:20:29;;;;;;;0.50;0.50;;;14.50;99.90;;;;;;5028282;28;20036;-80
2022/05/27 08:22:57;;;;;;;0.30;0.30;;;14.30;99.90;;;;;;5027493;28;20103;-77
2022/05/27 08:25:23;;;;;;;0.30;0.30;;;14.40;99.90;;;;;;5014236;28;20073;-81
2022/05/27 08:27:49;;;;;;;0.30;0.30;;;14.60;99.90;;;;;;5031705;28;20449;-80
2022/05/27 08:30:19;;;;;;;3.00;0.85;;;14.70;99.90;;;;;;5025845;28;20513;-79
2022/05/27 08:32:47;;;;;;;1.05;1.05;;;14.80;99.90;;;;;;5026359;28;20798;-79
2022/05/27 08:38:03;;;;;;;0.50;0.50;;;14.70;99.90;;;;;;5051900;28;20041;-78
2022/05/27 08:40:36;;;;;;;0.52;0.52;;;14.70;99.90;;;;;;5034297;28;20041;-79
2022/05/27 08:43:26;;;;;;;0.73;0.73;;;14.60;99.90;;;;;;5004419;28;20080;-78
2022/05/27 08:46:13;;;;;;;0.40;0.40;;;14.70;99.90;;;;;;5017162;28;20537;-79
2022/05/27 08:48:43;;;;;;;7.32;1.00;;;14.90;99.90;;;;;;5022747;28;20121;-77
2022/05/27 08:51:30;;;;;;;0.60;0.60;;;15.20;99.90;;;;;;5001018;28;20041;-80
2022/05/27 08:54:06;;;;;;;0.30;0.30;;;15.30;99.90;;;;;;5033639;28;20355;-77
2022/05/27 08:59:31;;;;;;;1.30;0.85;;;14.90;99.90;;;;;;5020487;28;20059;-77
2022/05/27 09:02:10;;;;;;;1.00;1.00;;;15.00;99.90;;;;;;5020474;28;20033;-78
2022/05/27 09:04:41;;;;;;;0.30;0.30;;;15.10;99.90;;;;;;5032742;28;20128;-78
2022/05/27 09:07:24;;;;;;;0.40;0.40;;;14.80;99.90;;;;;;5020812;28;20473;-78
2022/05/27 09:09:52;;;;;;;0.55;0.55;;;14.60;99.90;;;;;;5021196;28;20041;-80
2022/05/27 09:12:25;;;;;;;2.75;0.50;;;14.60;99.90;;;;;;5017896;28;20073;-79
2022/05/27 09:15:09;;;;;;;0.50;0.50;;;14.60;99.90;;;;;;5027076;28;20045;-78
2022/05/27 09:17:43;;;;;;;1.13;1.02;;;14.50;99.90;;;;;;5049725;28;20056;-80
2022/05/27 09:20:22;;;;;;;0.43;0.43;;;14.50;99.90;;;;;;5016712;28;20037;-80
2022/05/27 09:22:56;;;;;;;0.45;0.45;;;14.70;99.90;;;;;;5049861;28;20040;-79
2022/05/27 09:25:52;;;;;;;1.05;1.05;;;14.70;99.90;;;;;;5030649;28;20401;-80
2022/05/27 09:28:29;;;;;;;1.20;1.20;;;14.80;99.90;;;;;;5055922;28;20057;-78
2022/05/27 09:30:58;;;;;;;0.45;0.45;;;15.00;99.90;;;;;;5014484;28;20080;-78
2022/05/27 09:33:26;;;;;;;0.50;0.50;;;14.90;99.90;;;;;;5005455;28;20250;-79
2022/05/27 09:36:04;;;;;;;0.95;0.95;;;15.00;99.90;;;;;;5035986;28;20075;-78
2022/05/27 09:38:33;;;;;;;0.40;0.40;;;15.20;99.90;;;;;;5025543;28;20046;-79
2022/05/27 09:41:07;;;;;;;0.30;0.30;;;15.10;99.90;;;;;;4994283;28;20124;-78
2022/05/27 09:43:53;;;;;;;0.35;0.35;;;15.10;99.90;;;;;;5008156;28;20383;-79
2022/05/27 09:46:26;;;;;;;2.50;1.85;;;15.00;99.90;;;;;;5019060;28;20037;-79
2022/05/27 09:48:52;;;;;;;0.20;0.20;;;15.20;99.90;;;;;;5002238;28;20038;-79
2022/05/27 09:51:19;;;;;;;0.50;0.50;;;15.30;99.90;;;;;;5020891;28;20494;-80
2022/05/27 09:53:51;;;;;;;0.50;0.50;;;15.30;99.90;;;;;;5017058;28;20066;-78
2022/05/27 09:56:36;;;;;;;0.30;0.30;;;15.50;99.90;;;;;;5009219;28;20509;-78
2022/05/27 09:59:25;;;;;;;0.30;0.30;;;15.00;99.90;;;;;;5032920;28;20042;-80
2022/05/27 10:01:51;;;;;;;0.40;0.40;;;14.90;99.90;;;;;;5027593;28;20041;-78
2022/05/27 10:04:20;;;;;;;0.40;0.40;;;14.80;99.90;;;;;;5010876;28;20137;-81
2022/05/27 10:06:47;;;;;;;0.30;0.30;;;14.90;99.90;;;;;;5022383;28;20050;-80
2022/05/27 10:09:42;;;;;;;0.30;0.30;;;15.10;99.90;;;;;;5026630;28;20120;-78
2022/05/27 10:12:07;;;;;;;0.35;0.35;;;15.10;99.90;;;;;;4982626;28;20085;-80
2022/05/27 10:14:34;;;;;;;0.30;0.30;;;15.10;99.90;;;;;;4997547;28;20089;-79
2022/05/27 10:17:32;;;;;;;0.28;0.28;;;15.30;99.90;;;;;;5031244;28;20045;-79
2022/05/27 10:20:17;;;;;;;;;;;15.30;99.90;;;;;;5032768;28;20053;-80
2022/05/27 10:22:55;;;;;;;0.30;0.30;;;15.20;99.90;;;;;;5066482;28;19967;-79
2022/05/27 10:25:30;;;;;;;1.35;1.30;;;15.10;99.90;;;;;;5009873;28;20057;-80
2022/05/27 10:27:55;;;;;;;0.40;0.40;;;15.10;99.90;;;;;;5032668;28;20049;-79
2022/05/27 10:30:30;;;;;;;0.40;0.40;;;15.20;99.90;;;;;;5017302;28;20096;-77
2022/05/27 10:33:16;;;;;;;0.90;0.90;;;15.20;99.90;;;;;;5033008;28;20144;-80
2022/05/27 10:35:43;;;;;;;0.65;0.65;;;15.20;99.90;;;;;;5004467;28;20038;-79
2022/05/27 10:38:20;;;;;;;1.33;0.55;;;15.20;99.90;;;;;;5008604;28;20033;-79
2022/05/27 10:40:54;;;;;;;0.77;0.77;;;15.30;99.90;;;;;;5035635;28;20049;-78
2022/05/27 10:43:33;;;;;;;0.50;0.50;;;15.20;99.90;;;;;;5018417;28;20051;-80
2022/05/27 10:46:04;;;;;;;0.57;0.57;;;15.20;99.90;;;;;;5030654;28;20495;-79
2022/05/27 10:48:48;;;;;;;0.30;0.30;;;15.40;99.90;;;;;;5015796;28;20054;-78
2022/05/27 10:51:52;;;;;;;0.30;0.30;;;15.60;99.90;;;;;;5022564;28;20045;-80
2022/05/27 10:54:33;;;;;;;0.52;0.40;;;15.70;99.90;;;;;;5030584;28;20049;-79
2022/05/27 11:03:12;;;;;;;0.70;0.68;;;15.40;99.90;;;;;;5035362;28;20048;-78
2022/05/27 11:05:50;;;;;;;;;;;15.40;99.90;;;;;;5054051;28;20041;-78
2022/05/27 11:08:34;;;;;;;0.35;0.35;;;15.30;99.90;;;;;;5035992;28;19917;-81
2022/05/27 11:11:25;;;;;;;0.35;0.35;;;15.20;99.90;;;;;;5008598;28;20076;-80
2022/05/27 11:16:56;;;;;;;2.67;0.98;;;15.10;99.90;;;;;;5028611;28;20498;-78
2022/05/27 11:19:36;;;;;;;3.30;1.48;;;15.40;99.90;;;;;;5037620;28;20124;-79
2022/05/27 11:22:38;;;;;;;0.73;0.47;;;15.60;99.90;;;;;;5016142;28;20426;-77
2022/05/27 11:25:15;;;;;;;0.50;0.50;;;15.50;99.90;;;;;;5020311;28;20098;-79
2022/05/27 11:27:52;;;;;;;0.40;0.40;;;15.20;99.90;;;;;;5040504;28;20075;-79
2022/05/27 11:30:45;;;;;;;5.07;0.70;;;15.40;99.90;;;;;;5038110;28;20049;-79
2022/05/27 11:33:46;;;;;;;0.68;0.68;;;15.50;99.90;;;;;;5032836;28;20520;-81
2022/05/27 11:36:46;;;;;;;0.50;0.50;;;15.50;99.90;;;;;;5022023;28;20053;-78
2022/05/27 11:39:35;;;;;;;0.30;0.30;;;15.40;99.90;;;;;;5021916;28;20064;-80
2022/05/27 11:42:20;;;;;;;0.60;0.60;;;15.40;99.90;;;;;;5034591;28;20045;-77
2022/05/27 11:45:06;;;;;;;0.73;0.70;;;15.60;99.90;;;;;;5031808;28;20072;-79
2022/05/27 11:47:44;;;;;;;0.40;0.40;;;15.50;99.90;;;;;;5017469;28;20041;-81
2022/05/27 11:50:21;;;;;;;0.65;0.65;;;15.20;99.90;;;;;;5017681;28;20487;-79
2022/05/27 11:53:26;;;;;;;0.40;0.40;;;15.10;99.90;;;;;;5034399;28;20048;-78
2022/05/27 11:56:16;;;;;;;0.32;0.32;;;15.10;99.90;;;;;;5018097;28;20432;-79
2022/05/27 11:58:48;;;;;;;1.00;0.90;;;15.10;99.90;;;;;;5016093;28;20052;-81
2022/05/27 12:01:43;;;;;;;0.43;0.38;;;15.10;99.90;;;;;;5045109;28;20048;-78
2022/05/27 12:04:31;;;;;;;0.77;0.77;;;15.10;99.90;;;;;;5016634;28;20474;-79
2022/05/27 12:07:25;;;;;;;0.30;0.30;;;15.20;99.90;;;;;;5037359;28;20051;-79
2022/05/27 12:10:00;;;;;;;1.52;1.45;;;15.10;99.90;;;;;;5021862;28;20073;-80
2022/05/27 12:12:31;;;;;;;0.60;0.60;;;15.00;99.90;;;;;;5009807;28;20563;-79
2022/05/27 12:15:21;;;;;;;0.55;0.55;;;15.10;99.90;;;;;;5035737;28;20045;-78
2022/05/27 12:17:51;;;;;;;0.40;0.40;;;15.40;99.90;;;;;;5014031;28;20037;-76
2022/05/27 12:20:28;;;;;;;0.32;0.32;;;15.40;99.90;;;;;;5061471;28;20463;-79
2022/05/27 12:22:54;;;;;;;0.30;0.30;;;15.30;99.90;;;;;;5014091;28;20045;-80
2022/05/27 12:25:22;;;;;;;;;;;15.30;99.90;;;;;;5022215;28;20048;-81
2022/05/27 12:27:49;;;;;;;0.52;0.52;;;15.40;99.90;;;;;;5004160;28;19921;-79
2022/05/27 12:30:18;;;;;;;0.30;0.30;;;15.50;99.90;;;;;;5067495;28;20470;-77
2022/05/27 12:32:46;;;;;;;0.88;0.77;;;15.60;99.90;;;;;;5037016;28;20045;-76
2022/05/27 12:35:40;;;;;;;0.68;0.68;;;15.60;99.90;;;;;;5017780;28;20052;-78
2022/05/27 12:38:10;;;;;;;0.40;0.40;;;15.70;99.90;;;;;;5038201;28;20033;-78
2022/05/27 12:40:41;;;;;;;0.95;0.95;;;15.80;99.90;;;;;;5051985;28;20132;-79
2022/05/27 12:43:32;;;;;;;0.50;0.50;;;15.80;99.90;;;;;;5021857;28;20049;-79
2022/05/27 12:46:01;;;;;;;0.32;0.32;;;15.80;99.90;;;;;;5020939;28;20460;-80
2022/05/27 12:48:37;;;;;;;0.45;0.45;;;15.60;99.90;;;;;;5037940;28;20121;-79
2022/05/27 12:51:27;;;;;;;0.30;0.30;;;15.30;99.90;;;;;;5037127;28;20398;-78
2022/05/27 12:53:59;;;;;;;0.35;0.35;;;15.50;99.90;;;;;;5017406;28;20045;-78
2022/05/27 13:02:31;;;;;;;0.50;0.50;;;16.50;99.90;;;;;;5020458;28;20075;-79
2022/05/27 13:05:03;;;;;;;0.65;0.50;;;16.80;99.90;;;;;;5033065;28;20121;-78
2022/05/27 13:07:35;;;;;;;0.32;0.32;;;16.60;99.90;;;;;;5018380;28;20074;-81
2022/05/27 13:10:16;;;;;;;3.90;2.17;;;16.10;99.90;;;;;;5032395;28;20072;-82
2022/05/27 13:12:45;;;;;;;0.35;0.35;;;16.10;99.90;;;;;;5029265;28;20406;-77
2022/05/27 13:15:25;;;;;;;0.20;0.20;;;16.30;99.90;;;;;;5034106;28;20050;-80
2022/05/27 13:18:05;;;;;;;0.60;0.60;;;16.70;99.90;;;;;;5038400;28;20091;-80
2022/05/27 13:20:43;;;;;;;0.40;0.40;;;17.10;99.90;;;;;;5005628;28;20041;-78
2022/05/27 13:23:12;;;;;;;2.05;0.45;;;17.10;99.20;;;;;;5019879;28;20088;-78
2022/05/27 13:25:39;;;;;;;0.30;0.30;;;16.80;98.70;;;;;;5035584;28;20143;-79
2022/05/27 13:28:11;;;;;;;0.30;0.30;;;16.60;99.90;;;;;;5026652;28;20059;-80
2022/05/27 13:30:52;;;;;;;0.22;0.22;;;16.70;99.90;;;;;;5070848;28;20044;-77
2022/05/27 13:33:24;;;;;;;0.60;0.60;;;16.50;99.90;;;;;;5048508;28;20077;-79
2022/05/27 13:35:52;;;;;;;0.30;0.30;;;16.10;99.90;;;;;;5017424;28;20037;-80
2022/05/27 13:38:24;;;;;;;0.40;0.40;;;15.80;99.90;;;;;;5041377;28;20052;-78
2022/05/27 13:40:50;;;;;;;0.30;0.30;;;15.80;99.90;;;;;;5023611;28;20479;-79
2022/05/27 13:43:27;;;;;;;0.60;0.60;;;16.00;99.90;;;;;;5038224;28;20044;-79
2022/05/27 13:46:03;;;;;;;0.52;0.52;;;16.40;99.90;;;;;;5030987;28;20041;-77
2022/05/27 13:48:52;;;;;;;8.68;1.58;;;16.50;99.90;;;;;;5001113;28;20053;-78
2022/05/27 13:51:21;;;;;;;0.30;0.30;;;16.50;99.90;;;;;;5018281;28;20124;-77
2022/05/27 13:53:49;;;;;;;0.65;0.65;;;16.20;99.90;;;;;;5030512;28;20037;-78